createdAt,value
2023-04-10T00:01:23.065Z,19.20
2023-04-10T00:03:50.794Z,20.20
2023-04-10T00:06:18.557Z,21.88
2023-04-10T00:08:46.065Z,22.58
2023-04-10T00:11:13.618Z,19.27
2023-04-10T00:13:41.241Z,19.60
2023-04-10T00:16:10.238Z,20.33
2023-04-10T00:18:37.935Z,17.35
2023-04-10T00:21:06.544Z,19.02
2023-04-10T00:23:34.728Z,23.63
2023-04-10T00:26:02.625Z,20.10
2023-04-10T00:28:30.274Z,20.30
2023-04-10T00:30:57.831Z,19.05
2023-04-10T00:33:26.772Z,19.75
2023-04-10T00:35:54.355Z,19.92
2023-04-10T00:38:22.133Z,22.17
2023-04-10T00:40:49.627Z,23.10
2023-04-10T00:43:19.296Z,18.98
2023-04-10T00:45:48.862Z,20.48
2023-04-10T00:48:17.688Z,20.60
2023-04-10T00:50:48.467Z,19.25
2023-04-10T00:53:16.202Z,18.23
2023-04-10T00:55:46.436Z,21.17
2023-04-10T00:58:14.682Z,20.98
2023-04-10T01:00:42.346Z,19.33
2023-04-10T01:03:10.369Z,24.67
2023-04-10T01:05:43.082Z,28.75
2023-04-10T01:08:15.786Z,25.17
2023-04-10T01:10:47.838Z,23.35
2023-04-10T01:13:17.616Z,25.00
2023-04-10T01:15:48.951Z,25.02
2023-04-10T01:18:19.305Z,27.27
2023-04-10T01:20:46.920Z,24.15
2023-04-10T01:23:24.983Z,26.23
2023-04-10T01:25:54.977Z,24.25
2023-04-10T01:28:40.555Z,25.80
2023-04-10T01:31:12.177Z,23.33
2023-04-10T01:33:41.482Z,36.15
2023-04-10T01:36:10.602Z,25.33
2023-04-10T01:38:41.066Z,26.70
2023-04-10T01:41:09.192Z,29.25
2023-04-10T01:43:37.253Z,23.90
2023-04-10T01:46:04.968Z,31.52
2023-04-10T01:48:33.959Z,27.40
2023-04-10T01:51:02.680Z,28.25
2023-04-10T01:53:31.704Z,30.90
2023-04-10T01:55:59.411Z,33.88
2023-04-10T01:58:27.717Z,35.17
2023-04-10T02:00:55.606Z,29.73
2023-04-10T02:03:23.393Z,32.63
2023-04-10T02:05:58.080Z,27.45
2023-04-10T02:08:29.256Z,32.83
2023-04-10T02:10:59.191Z,30.33
2023-04-10T02:13:27.727Z,27.13
2023-04-10T02:15:57.191Z,22.35
2023-04-10T02:18:25.256Z,27.42
2023-04-10T02:20:54.860Z,25.15
2023-04-10T02:23:24.159Z,25.50
2023-04-10T02:25:51.893Z,30.52
2023-04-10T02:28:19.805Z,27.33
2023-04-10T02:30:47.423Z,28.88
2023-04-10T02:33:15.517Z,29.10
2023-04-10T02:35:43.485Z,30.50
2023-04-10T02:38:12.787Z,32.60
2023-04-10T02:40:40.411Z,29.08
2023-04-10T02:43:07.952Z,34.45
2023-04-10T02:45:35.540Z,39.60
2023-04-10T02:48:03.134Z,29.55
2023-04-10T02:50:32.314Z,34.72
2023-04-10T02:52:59.964Z,27.02
2023-04-10T02:55:28.915Z,30.45
2023-04-10T02:57:56.788Z,31.45
2023-04-10T03:00:24.587Z,39.03
2023-04-10T03:02:53.756Z,32.13
2023-04-10T03:05:21.728Z,31.17
2023-04-10T03:07:49.386Z,30.17
2023-04-10T03:10:16.988Z,33.63
2023-04-10T03:12:46.009Z,33.85
2023-04-10T03:15:13.733Z,27.95
2023-04-10T03:17:41.311Z,28.23
2023-04-10T03:20:09.827Z,27.67
2023-04-10T03:22:37.495Z,33.03
2023-04-10T03:25:05.663Z,27.85
2023-04-10T03:27:34.883Z,31.75
2023-04-10T03:30:04.095Z,29.52
2023-04-10T03:32:32.139Z,31.25
2023-04-10T03:34:59.802Z,24.80
2023-04-10T03:37:28.458Z,29.63
2023-04-10T03:39:56.191Z,28.70
2023-04-10T03:42:29.432Z,26.15
2023-04-10T03:48:13.974Z,31.35
2023-04-10T03:50:42.191Z,29.00
2023-04-10T03:53:09.950Z,24.48
2023-04-10T03:55:38.683Z,28.00
2023-04-10T03:58:06.725Z,28.85
2023-04-10T04:00:34.909Z,29.60
2023-04-10T04:03:05.103Z,28.33
2023-04-10T04:05:34.312Z,29.90
2023-04-10T04:08:03.413Z,32.17
2023-04-10T04:10:31.151Z,28.15
2023-04-10T04:12:58.827Z,29.73
2023-04-10T04:15:26.682Z,24.92
2023-04-10T04:17:54.515Z,27.33
2023-04-10T04:20:22.373Z,28.27
2023-04-10T04:22:56.815Z,29.40
2023-04-10T04:25:24.526Z,32.35
2023-04-10T04:27:52.516Z,27.73
2023-04-10T04:30:20.205Z,26.70
2023-04-10T04:32:48.105Z,28.90
2023-04-10T04:35:16.064Z,31.20
2023-04-10T04:37:43.615Z,26.27
2023-04-10T04:40:13.086Z,33.22
2023-04-10T04:42:40.584Z,29.92
2023-04-10T04:45:08.990Z,27.33
2023-04-10T04:47:36.639Z,28.88
2023-04-10T04:50:04.217Z,25.75
2023-04-10T04:52:32.218Z,31.13
2023-04-10T04:55:00.219Z,28.15
2023-04-10T04:57:29.122Z,30.10
2023-04-10T04:59:56.698Z,34.80
2023-04-10T05:02:24.506Z,33.35
2023-04-10T05:04:52.237Z,27.67
2023-04-10T05:07:20.101Z,24.48
2023-04-10T05:09:50.444Z,30.02
2023-04-10T05:15:15.193Z,33.08
2023-04-10T05:17:43.071Z,28.00
2023-04-10T05:20:11.685Z,32.83
2023-04-10T05:22:42.523Z,34.03
2023-04-10T05:28:05.930Z,31.33
2023-04-10T05:30:35.084Z,30.55
2023-04-10T05:33:02.835Z,30.48
2023-04-10T05:35:30.503Z,26.83
2023-04-10T05:37:58.984Z,26.00
2023-04-10T05:43:26.106Z,26.13
2023-04-10T05:45:55.792Z,30.20
2023-04-10T05:48:26.128Z,18.63
2023-04-10T05:50:53.769Z,25.30
2023-04-10T05:53:22.174Z,23.77
2023-04-10T05:55:51.492Z,25.65
2023-04-10T05:58:19.830Z,26.58
2023-04-10T06:00:48.061Z,26.00
2023-04-10T06:03:17.304Z,31.38
2023-04-10T06:05:45.003Z,25.08
2023-04-10T06:08:12.794Z,25.75
2023-04-10T06:10:43.193Z,22.23
2023-04-10T06:13:11.382Z,20.50
2023-04-10T06:15:39.268Z,24.27
2023-04-10T06:18:06.896Z,23.48
2023-04-10T06:20:36.212Z,25.42
2023-04-10T06:23:03.925Z,23.35
2023-04-10T06:25:31.443Z,25.58
2023-04-10T06:27:59.262Z,22.15
2023-04-10T06:30:27.046Z,27.83
2023-04-10T06:32:54.741Z,19.15
2023-04-10T06:35:22.639Z,24.35
2023-04-10T06:37:51.838Z,21.92
2023-04-10T06:40:19.491Z,22.00
2023-04-10T06:42:47.121Z,24.25
2023-04-10T06:45:18.962Z,22.23
2023-04-10T06:47:46.708Z,25.13
2023-04-10T06:50:16.002Z,23.25
2023-04-10T06:52:44.159Z,23.00
2023-04-10T06:55:13.950Z,23.17
2023-04-10T06:57:42.217Z,19.65
2023-04-10T07:00:42.532Z,21.30
2023-04-10T07:03:10.555Z,25.67
2023-04-10T07:05:40.125Z,29.30
2023-04-10T07:08:09.781Z,26.08
2023-04-10T07:10:38.740Z,22.98
2023-04-10T07:13:07.098Z,26.42
2023-04-10T07:15:34.965Z,25.45
2023-04-10T07:18:02.806Z,30.85
2023-04-10T07:20:40.416Z,26.75
2023-04-10T07:23:08.229Z,23.80
2023-04-10T07:25:36.345Z,21.55
2023-04-10T07:28:06.079Z,28.85
2023-04-10T07:30:33.958Z,27.17
2023-04-10T07:33:05.041Z,27.73
2023-04-10T07:35:34.260Z,22.55
2023-04-10T07:38:02.933Z,26.15
2023-04-10T07:40:31.343Z,25.88
2023-04-10T07:42:59.261Z,35.55
2023-04-10T07:45:28.958Z,23.65
2023-04-10T07:47:57.296Z,25.25
2023-04-10T07:50:27.629Z,32.30
2023-04-10T07:52:55.502Z,25.52
2023-04-10T07:55:23.637Z,28.15
2023-04-10T07:57:52.344Z,28.80
2023-04-10T08:00:20.774Z,27.65
2023-04-10T08:02:50.159Z,27.52
2023-04-10T08:05:18.223Z,30.55
2023-04-10T08:07:45.996Z,32.17
2023-04-10T08:10:13.574Z,28.65
2023-04-10T08:12:41.172Z,30.35
2023-04-10T08:15:09.085Z,31.58
2023-04-10T08:17:36.594Z,30.33
2023-04-10T08:20:06.600Z,26.90
2023-04-10T08:22:34.177Z,26.50
2023-04-10T08:25:01.799Z,24.30
2023-04-10T08:27:30.491Z,25.15
2023-04-10T08:29:58.143Z,33.60
2023-04-10T08:32:26.680Z,25.02
2023-04-10T08:34:54.544Z,27.90
2023-04-10T08:37:23.545Z,19.10
2023-04-10T08:39:51.272Z,16.60
2023-04-10T08:42:20.436Z,17.70
2023-04-10T08:44:49.605Z,15.52
2023-04-10T08:47:19.983Z,19.42
2023-04-10T08:49:49.263Z,12.18
2023-04-10T08:52:19.167Z,14.63
2023-04-10T08:54:51.314Z,12.38
2023-04-10T08:57:20.841Z,11.82
2023-04-10T08:59:48.863Z,9.82
2023-04-10T09:02:16.854Z,9.73
2023-04-10T09:04:47.722Z,11.82
2023-04-10T09:07:15.383Z,10.35
2023-04-10T09:09:42.928Z,9.20
2023-04-10T09:12:12.101Z,10.52
2023-04-10T09:14:40.055Z,6.75
2023-04-10T09:17:15.426Z,8.45
2023-04-10T09:19:43.204Z,9.15
2023-04-10T09:22:10.941Z,10.07
2023-04-10T09:24:40.960Z,9.25
2023-04-10T09:27:28.336Z,7.45
2023-04-10T09:29:58.498Z,9.70
2023-04-10T09:32:39.775Z,7.32
2023-04-10T09:35:08.622Z,7.43
2023-04-10T09:37:36.439Z,10.70
2023-04-10T09:40:04.229Z,9.48
2023-04-10T09:42:34.286Z,12.23
2023-04-10T09:45:04.932Z,12.25
2023-04-10T09:47:33.111Z,10.15
2023-04-10T09:50:01.536Z,10.45
2023-04-10T09:52:30.036Z,12.13
2023-04-10T09:54:57.936Z,8.45
2023-04-10T09:57:26.474Z,9.20
2023-04-10T09:59:56.063Z,14.43
2023-04-10T10:02:24.613Z,9.80
2023-04-10T10:04:53.001Z,10.82
2023-04-10T10:07:21.164Z,10.40
2023-04-10T10:09:50.494Z,10.55
2023-04-10T10:12:20.477Z,9.75
2023-04-10T10:14:51.925Z,11.68
2023-04-10T10:17:25.583Z,11.52
2023-04-10T10:19:55.882Z,9.32
2023-04-10T10:22:24.647Z,9.38
2023-04-10T10:24:56.606Z,12.00
2023-04-10T10:27:24.342Z,10.23
2023-04-10T10:29:54.190Z,10.98
2023-04-10T10:32:25.121Z,8.50
2023-04-10T10:34:53.172Z,8.70
2023-04-10T10:37:21.296Z,9.02
2023-04-10T10:39:54.503Z,8.07
2023-04-10T10:42:24.450Z,8.35
2023-04-10T10:44:53.904Z,8.30
2023-04-10T10:47:23.798Z,6.07
2023-04-10T10:49:59.608Z,7.78
2023-04-10T10:52:54.163Z,7.88
2023-04-10T10:55:34.728Z,7.30
2023-04-10T10:58:02.857Z,5.78
2023-04-10T11:00:49.197Z,8.20
2023-04-10T11:03:38.624Z,4.55
2023-04-10T11:06:09.309Z,7.45
2023-04-10T11:08:40.090Z,6.65
2023-04-10T11:11:08.348Z,7.22
2023-04-10T11:13:36.480Z,4.35
2023-04-10T11:16:05.037Z,4.03
2023-04-10T11:19:02.692Z,4.03
2023-04-10T11:22:00.375Z,6.75
2023-04-10T11:24:27.957Z,5.20
2023-04-10T11:26:56.911Z,4.18
2023-04-10T11:29:34.424Z,5.28
2023-04-10T11:32:02.577Z,5.65
2023-04-10T11:34:30.844Z,5.25
2023-04-10T11:37:01.054Z,5.72
2023-04-10T11:39:28.646Z,4.35
2023-04-10T11:41:57.536Z,5.90
2023-04-10T11:44:29.103Z,4.15
2023-04-10T11:46:58.201Z,3.75
2023-04-10T11:49:29.087Z,5.18
2023-04-10T11:51:58.610Z,17.60
2023-04-10T11:54:28.213Z,7.60
2023-04-10T11:56:59.165Z,9.98
2023-04-10T11:59:26.856Z,4.72
2023-04-10T12:05:12.796Z,3.50
2023-04-10T12:07:40.607Z,9.25
2023-04-10T12:10:10.630Z,5.80
2023-04-10T12:12:38.577Z,7.65
2023-04-10T12:15:21.340Z,4.43
2023-04-10T12:17:48.998Z,5.25
2023-04-10T12:20:17.074Z,6.53
2023-04-10T12:22:45.557Z,9.63
2023-04-10T12:25:16.682Z,6.20
2023-04-10T12:27:49.283Z,6.25
2023-04-10T12:30:16.906Z,7.07
2023-04-10T12:32:52.127Z,8.52
2023-04-10T12:35:20.080Z,9.23
2023-04-10T12:37:50.461Z,8.20
2023-04-10T12:40:20.843Z,6.38
2023-04-10T12:42:48.641Z,4.63
2023-04-10T12:45:16.470Z,7.03
2023-04-10T12:47:45.424Z,10.93
2023-04-10T12:50:14.908Z,9.43
2023-04-10T12:53:04.381Z,9.05
2023-04-10T12:55:34.000Z,10.15
2023-04-10T12:58:16.916Z,12.45
2023-04-10T13:00:45.111Z,8.15
2023-04-10T13:03:12.833Z,11.23
2023-04-10T13:05:40.602Z,12.05
2023-04-10T13:08:08.427Z,10.15
2023-04-10T13:10:41.511Z,10.32
2023-04-10T13:13:14.037Z,11.10
2023-04-10T13:15:44.731Z,10.40
2023-04-10T13:18:16.047Z,13.80
2023-04-10T13:20:44.075Z,12.07
2023-04-10T13:25:57.225Z,13.02
2023-04-10T13:28:24.919Z,12.25
2023-04-10T13:30:55.258Z,15.55
2023-04-10T13:33:27.125Z,8.02
2023-04-10T13:35:54.986Z,11.45
2023-04-10T13:38:22.719Z,12.70
2023-04-10T13:40:50.616Z,13.00
2023-04-10T13:43:22.090Z,12.77
2023-04-10T13:45:50.181Z,12.65
2023-04-10T13:48:24.340Z,12.35
2023-04-10T13:50:55.172Z,15.05
2023-04-10T13:56:19.188Z,15.35
2023-04-10T13:58:48.144Z,15.38
2023-04-10T14:01:15.964Z,12.57
2023-04-10T14:03:49.449Z,11.88
2023-04-10T14:06:19.292Z,12.32
2023-04-10T14:08:47.888Z,11.25
2023-04-10T14:11:16.983Z,16.73
2023-04-10T14:13:44.630Z,12.65
2023-04-10T14:16:14.167Z,15.50
2023-04-10T14:18:41.843Z,11.48
2023-04-10T14:26:22.232Z,9.90
2023-04-10T14:28:50.294Z,15.50
2023-04-10T14:31:19.981Z,28.02
2023-04-10T14:33:50.729Z,13.60
2023-04-10T14:36:32.214Z,15.18
2023-04-10T14:39:00.966Z,16.67
2023-04-10T14:41:28.992Z,13.73
2023-04-10T14:43:59.658Z,9.80
2023-04-10T14:46:28.935Z,15.93
2023-04-10T14:48:56.635Z,15.57
2023-04-10T14:51:24.503Z,15.77
2023-04-10T14:53:52.317Z,12.80
2023-04-10T14:56:20.463Z,12.60
2023-04-10T14:58:48.290Z,13.93
2023-04-10T15:01:16.219Z,15.05
2023-04-10T15:03:47.334Z,13.55
2023-04-10T15:06:15.611Z,12.90
2023-04-10T15:08:43.264Z,11.55
2023-04-10T15:11:10.964Z,12.68
2023-04-10T15:13:39.548Z,9.82
2023-04-10T15:16:08.029Z,15.25
2023-04-10T15:18:35.779Z,9.30
2023-04-10T15:21:05.917Z,9.13
2023-04-10T15:23:33.716Z,11.25
2023-04-10T15:26:01.501Z,11.15
2023-04-10T15:28:29.309Z,11.40
2023-04-10T15:30:57.751Z,11.32
2023-04-10T15:33:25.448Z,15.60
2023-04-10T15:35:53.066Z,13.23
2023-04-10T15:38:26.163Z,11.45
2023-04-10T15:40:53.856Z,12.05
2023-04-10T15:43:21.540Z,11.27
2023-04-10T15:45:49.217Z,14.73
2023-04-10T15:48:16.798Z,15.85
2023-04-10T15:50:44.337Z,12.70
2023-04-10T15:53:11.927Z,16.65
2023-04-10T15:55:41.680Z,15.65
2023-04-10T15:58:09.213Z,17.92
2023-04-10T16:00:47.869Z,14.07
2023-04-10T16:03:15.643Z,17.67
2023-04-10T16:05:43.328Z,18.67
2023-04-10T16:08:10.883Z,19.27
2023-04-10T16:10:40.458Z,19.45
2023-04-10T16:13:12.326Z,25.25
2023-04-10T16:15:40.101Z,15.00
2023-04-10T16:18:08.796Z,22.40
2023-04-10T16:20:39.338Z,24.27
2023-04-10T16:23:06.941Z,14.80
2023-04-10T16:25:34.494Z,15.20
2023-04-10T16:28:02.210Z,17.35
2023-04-10T16:30:31.109Z,13.13
2023-04-10T16:32:58.741Z,17.90
2023-04-10T16:35:26.299Z,15.27
2023-04-10T16:37:56.947Z,13.07
2023-04-10T16:40:27.651Z,21.52
2023-04-10T16:42:55.100Z,16.30
2023-04-10T16:45:22.805Z,14.55
2023-04-10T16:47:51.668Z,16.48
2023-04-10T16:50:46.775Z,12.82
2023-04-10T16:53:14.580Z,16.10
2023-04-10T16:55:42.134Z,15.23
2023-04-10T16:58:09.823Z,11.95
2023-04-10T17:00:37.418Z,12.52
2023-04-10T17:03:08.147Z,12.07
2023-04-10T17:05:36.581Z,15.30
2023-04-10T17:08:05.280Z,17.27
2023-04-10T17:10:32.896Z,18.80
2023-04-10T17:13:01.299Z,16.23
2023-04-10T17:15:28.936Z,13.95
2023-04-10T17:17:59.056Z,22.48
2023-04-10T17:20:28.665Z,18.17
2023-04-10T17:22:56.318Z,16.48
2023-04-10T17:25:23.983Z,14.82
2023-04-10T17:27:51.560Z,18.48
2023-04-10T17:30:19.054Z,24.63
2023-04-10T17:32:48.656Z,19.20
2023-04-10T17:35:16.362Z,15.60
2023-04-10T17:37:45.251Z,18.90
2023-04-10T17:40:13.205Z,15.82
2023-04-10T17:42:40.755Z,20.35
2023-04-10T17:45:08.885Z,20.33
2023-04-10T17:47:36.528Z,18.92
2023-04-10T17:50:10.417Z,24.60
2023-04-10T17:52:38.186Z,22.70
2023-04-10T17:55:08.052Z,19.58
2023-04-10T17:57:38.847Z,18.60
2023-04-10T18:00:08.148Z,20.95
2023-04-10T18:02:35.836Z,18.20
2023-04-10T18:05:03.690Z,21.95
2023-04-10T18:07:31.142Z,17.23
2023-04-10T18:09:58.735Z,20.45
2023-04-10T18:12:28.157Z,23.35
2023-04-10T18:14:55.678Z,22.55
2023-04-10T18:17:29.084Z,19.95
2023-04-10T18:19:57.573Z,19.37
2023-04-10T18:22:25.164Z,19.98
2023-04-10T18:24:53.352Z,22.05
2023-04-10T18:27:21.142Z,24.60
2023-04-10T18:29:50.102Z,24.95
2023-04-10T18:32:17.763Z,31.88
2023-04-10T18:34:49.783Z,27.00
2023-04-10T18:37:17.316Z,41.47
2023-04-10T18:39:49.235Z,44.47
2023-04-10T18:42:16.826Z,51.65
2023-04-10T18:44:44.745Z,52.78
2023-04-10T18:47:13.896Z,54.10
2023-04-10T18:49:41.850Z,47.60
2023-04-10T18:52:09.368Z,56.97
2023-04-10T18:54:37.227Z,42.95
2023-04-10T18:57:05.387Z,50.55
2023-04-10T18:59:32.916Z,45.22
2023-04-10T19:02:03.158Z,58.70
2023-04-10T19:04:32.442Z,52.72
2023-04-10T19:07:00.200Z,46.80
2023-04-10T19:09:27.910Z,46.05
2023-04-10T19:11:56.387Z,47.63
2023-04-10T19:14:23.859Z,44.05
2023-04-10T19:16:51.393Z,39.72
2023-04-10T19:19:18.843Z,44.25
2023-04-10T19:21:47.784Z,34.90
2023-04-10T19:24:15.664Z,32.97
2023-04-10T19:26:43.148Z,26.88
2023-04-10T19:29:10.829Z,29.52
2023-04-10T19:31:38.529Z,23.23
2023-04-10T19:34:09.310Z,21.83
2023-04-10T19:36:37.309Z,23.25
2023-04-10T19:39:06.460Z,18.48
2023-04-10T19:41:34.870Z,27.73
2023-04-10T19:44:02.409Z,24.80
2023-04-10T19:46:30.040Z,23.38
2023-04-10T19:48:57.819Z,21.08
2023-04-10T19:51:25.576Z,26.60
2023-04-10T19:53:55.872Z,26.40
2023-04-10T19:56:26.587Z,25.13
2023-04-10T19:58:54.031Z,22.15
2023-04-10T20:01:24.199Z,21.13
2023-04-10T20:03:52.040Z,21.45
2023-04-10T20:06:20.577Z,24.75
2023-04-10T20:08:48.188Z,27.23
2023-04-10T20:11:15.724Z,31.67
2023-04-10T20:13:44.579Z,27.27
2023-04-10T20:16:12.233Z,35.53
2023-04-10T20:18:42.852Z,46.10
2023-04-10T20:21:10.373Z,37.53
2023-04-10T20:23:38.616Z,35.30
2023-04-10T20:26:06.253Z,45.00
2023-04-10T20:28:33.710Z,37.47
2023-04-10T20:31:02.678Z,35.05
2023-04-10T20:33:30.694Z,33.88
2023-04-10T20:35:58.230Z,32.80
2023-04-10T20:38:25.925Z,37.70
2023-04-10T20:40:53.630Z,35.90
2023-04-10T20:43:21.345Z,32.45
2023-04-10T20:45:48.824Z,33.75
2023-04-10T20:48:17.699Z,33.30
2023-04-10T20:50:46.127Z,28.95
2023-04-10T20:53:13.734Z,29.85
2023-04-10T20:55:41.377Z,29.77
2023-04-10T20:58:08.862Z,38.08
2023-04-10T21:00:37.238Z,36.65
2023-04-10T21:03:04.894Z,40.38
2023-04-10T21:05:33.838Z,37.53
2023-04-10T21:08:03.335Z,31.92
2023-04-10T21:10:31.031Z,39.28
2023-04-10T21:12:58.521Z,39.20
2023-04-10T21:15:26.044Z,40.08
2023-04-10T21:17:53.714Z,44.83
2023-04-10T21:20:21.424Z,36.50
2023-04-10T21:22:50.736Z,39.42
2023-04-10T21:25:18.450Z,43.50
2023-04-10T21:27:45.944Z,44.08
2023-04-10T21:30:13.704Z,50.90
2023-04-10T21:32:41.271Z,45.20
2023-04-10T21:35:09.404Z,41.08
2023-04-10T21:37:36.968Z,37.30
2023-04-10T21:40:06.482Z,36.20
2023-04-10T21:42:34.135Z,34.78
2023-04-10T21:45:01.807Z,33.60
2023-04-10T21:47:29.297Z,31.77
2023-04-10T21:49:56.741Z,37.60
2023-04-10T21:52:24.408Z,31.75
2023-04-10T21:54:51.903Z,33.88
2023-04-10T21:57:20.815Z,36.03
2023-04-10T21:59:48.350Z,37.92
2023-04-10T22:02:16.048Z,37.08
2023-04-10T22:04:53.830Z,37.55
2023-04-10T22:07:22.448Z,31.25
2023-04-10T22:09:49.947Z,38.38
2023-04-10T22:12:17.477Z,45.53
2023-04-10T22:14:46.356Z,44.85
2023-04-10T22:17:14.299Z,38.88
2023-04-10T22:19:41.839Z,35.58
2023-04-10T22:22:09.332Z,41.10
2023-04-10T22:24:37.025Z,35.70
2023-04-10T22:27:04.564Z,28.60
2023-04-10T22:29:32.120Z,35.08
2023-04-10T22:32:00.990Z,32.08
2023-04-10T22:34:28.485Z,34.53
2023-04-10T22:36:56.135Z,38.63
2023-04-10T22:39:23.681Z,37.88
2023-04-10T22:41:54.000Z,37.28
2023-04-10T22:44:21.528Z,36.08
2023-04-10T22:46:49.169Z,33.60
2023-04-10T22:52:12.768Z,36.55
2023-04-10T22:54:40.251Z,35.20
2023-04-10T22:57:07.877Z,32.97
2023-04-10T22:59:36.274Z,37.45
2023-04-10T23:02:03.836Z,42.17
2023-04-10T23:04:32.799Z,33.33
2023-04-10T23:07:00.464Z,32.03
2023-04-10T23:09:28.070Z,41.58
2023-04-10T23:11:56.457Z,33.20
2023-04-10T23:14:24.045Z,38.13
2023-04-10T23:16:51.672Z,36.13
2023-04-10T23:19:21.021Z,41.72
2023-04-10T23:21:50.609Z,39.15
2023-04-10T23:24:18.127Z,36.85
2023-04-10T23:26:45.685Z,37.53
2023-04-10T23:29:13.221Z,39.67
2023-04-10T23:31:40.989Z,35.30
2023-04-10T23:34:08.579Z,37.38
2023-04-10T23:36:36.268Z,30.30
2023-04-10T23:39:06.868Z,29.90
2023-04-10T23:41:36.670Z,34.50
2023-04-10T23:44:04.432Z,29.67
2023-04-10T23:46:31.951Z,36.10
2023-04-10T23:48:59.670Z,30.83
2023-04-10T23:51:27.985Z,33.92
2023-04-10T23:53:55.487Z,32.38
2023-04-10T23:56:28.960Z,32.25
2023-04-10T23:58:56.998Z,32.42
